sensor_id;sensor_type;location;lat;lon;timestamp;P1;durP1;ratioP1;P2;durP2;ratioP2
50461;SDS011;45257;37.996;-122.328;2022-07-01T00:00:16;6.93;;;1.90;;
50461;SDS011;45257;37.996;-122.328;2022-07-01T00:02:44;5.35;;;1.90;;
50461;SDS011;45257;37.996;-122.328;2022-07-01T00:05:11;4.93;;;1.92;;
50461;SDS011;45257;37.996;-122.328;2022-07-01T00:07:38;4.20;;;1.52;;
50461;SDS011;45257;37.996;-122.328;2022-07-01T00:10:05;6.95;;;2.00;;
50461;SDS011;45257;37.996;-122.328;2022-07-01T00:12:33;5.72;;;1.30;;
50461;SDS011;45257;37.996;-122.328;2022-07-01T00:15:00;5.65;;;1.60;;
50461;SDS011;45257;37.996;-122.328;2022-07-01T00:17:27;8.85;;;1.77;;
50461;SDS011;45257;37.996;-122.328;2022-07-01T00:19:55;8.05;;;2.42;;
50461;SDS011;45257;37.996;-122.328;2022-07-01T00:22:22;5.95;;;1.60;;
50461;SDS011;45257;37.996;-122.328;2022-07-01T00:24:49;5.40;;;1.77;;
50461;SDS011;45257;37.996;-122.328;2022-07-01T00:27:16;5.13;;;1.75;;
50461;SDS011;45257;37.996;-122.328;2022-07-01T00:29:43;5.20;;;1.40;;
50461;SDS011;45257;37.996;-122.328;2022-07-01T00:32:10;3.83;;;1.80;;
50461;SDS011;45257;37.996;-122.328;2022-07-01T00:34:37;6.40;;;2.22;;
50461;SDS011;45257;37.996;-122.328;2022-07-01T00:37:05;5.13;;;1.77;;
50461;SDS011;45257;37.996;-122.328;2022-07-01T00:39:32;8.40;;;1.92;;
50461;SDS011;45257;37.996;-122.328;2022-07-01T00:42:01;5.63;;;1.85;;
50461;SDS011;45257;37.996;-122.328;2022-07-01T00:44:30;6.07;;;1.88;;
50461;SDS011;45257;37.996;-122.328;2022-07-01T00:47:01;6.82;;;2.17;;
50461;SDS011;45257;37.996;-122.328;2022-07-01T00:49:34;6.72;;;1.85;;
50461;SDS011;45257;37.996;-122.328;2022-07-01T00:52:02;6.22;;;2.00;;
50461;SDS011;45257;37.996;-122.328;2022-07-01T00:54:35;6.82;;;2.05;;
50461;SDS011;45257;37.996;-122.328;2022-07-01T00:57:10;6.72;;;2.30;;
50461;SDS011;45257;37.996;-122.328;2022-07-01T00:59:38;14.32;;;3.13;;
50461;SDS011;45257;37.996;-122.328;2022-07-01T01:02:06;13.95;;;2.17;;
50461;SDS011;45257;37.996;-122.328;2022-07-01T01:04:34;10.93;;;2.30;;
50461;SDS011;45257;37.996;-122.328;2022-07-01T01:07:01;16.17;;;2.22;;
50461;SDS011;45257;37.996;-122.328;2022-07-01T01:09:29;10.45;;;1.80;;
50461;SDS011;45257;37.996;-122.328;2022-07-01T01:11:56;13.75;;;1.95;;
50461;SDS011;45257;37.996;-122.328;2022-07-01T01:14:24;11.23;;;1.85;;
50461;SDS011;45257;37.996;-122.328;2022-07-01T01:16:51;8.15;;;1.23;;
50461;SDS011;45257;37.996;-122.328;2022-07-01T01:19:19;5.85;;;1.42;;
50461;SDS011;45257;37.996;-122.328;2022-07-01T01:21:46;12.90;;;1.17;;
50461;SDS011;45257;37.996;-122.328;2022-07-01T01:24:14;7.03;;;1.15;;
50461;SDS011;45257;37.996;-122.328;2022-07-01T01:26:41;4.53;;;1.27;;
50461;SDS011;45257;37.996;-122.328;2022-07-01T01:29:08;7.60;;;1.25;;
50461;SDS011;45257;37.996;-122.328;2022-07-01T01:31:35;6.20;;;0.95;;
50461;SDS011;45257;37.996;-122.328;2022-07-01T01:34:02;4.63;;;0.80;;
50461;SDS011;45257;37.996;-122.328;2022-07-01T01:36:29;4.05;;;0.98;;
50461;SDS011;45257;37.996;-122.328;2022-07-01T01:38:56;5.32;;;0.95;;
50461;SDS011;45257;37.996;-122.328;2022-07-01T01:41:27;11.13;;;1.23;;
50461;SDS011;45257;37.996;-122.328;2022-07-01T01:43:54;6.35;;;1.55;;
50461;SDS011;45257;37.996;-122.328;2022-07-01T01:46:21;8.48;;;1.67;;
50461;SDS011;45257;37.996;-122.328;2022-07-01T01:48:48;8.00;;;1.10;;
50461;SDS011;45257;37.996;-122.328;2022-07-01T01:51:15;4.03;;;1.40;;
50461;SDS011;45257;37.996;-122.328;2022-07-01T01:53:44;5.40;;;1.23;;
50461;SDS011;45257;37.996;-122.328;2022-07-01T01:56:12;4.10;;;1.35;;
50461;SDS011;45257;37.996;-122.328;2022-07-01T01:58:39;3.75;;;1.15;;
50461;SDS011;45257;37.996;-122.328;2022-07-01T02:03:38;3.55;;;0.75;;
50461;SDS011;45257;37.996;-122.328;2022-07-01T02:06:07;4.07;;;0.85;;
50461;SDS011;45257;37.996;-122.328;2022-07-01T02:08:35;3.92;;;0.90;;
50461;SDS011;45257;37.996;-122.328;2022-07-01T02:11:06;10.63;;;1.38;;
50461;SDS011;45257;37.996;-122.328;2022-07-01T02:13:34;9.82;;;1.23;;
50461;SDS011;45257;37.996;-122.328;2022-07-01T02:16:02;11.25;;;1.00;;
50461;SDS011;45257;37.996;-122.328;2022-07-01T02:18:30;8.05;;;1.10;;
50461;SDS011;45257;37.996;-122.328;2022-07-01T02:20:58;3.80;;;0.88;;
50461;SDS011;45257;37.996;-122.328;2022-07-01T02:23:25;3.83;;;0.77;;
50461;SDS011;45257;37.996;-122.328;2022-07-01T02:25:53;12.38;;;1.02;;
50461;SDS011;45257;37.996;-122.328;2022-07-01T02:28:23;7.13;;;0.95;;
50461;SDS011;45257;37.996;-122.328;2022-07-01T02:30:50;2.97;;;0.90;;
50461;SDS011;45257;37.996;-122.328;2022-07-01T02:33:18;10.70;;;1.00;;
50461;SDS011;45257;37.996;-122.328;2022-07-01T02:35:45;7.93;;;1.25;;
50461;SDS011;45257;37.996;-122.328;2022-07-01T02:38:12;11.57;;;1.23;;
50461;SDS011;45257;37.996;-122.328;2022-07-01T02:40:39;8.02;;;1.08;;
50461;SDS011;45257;37.996;-122.328;2022-07-01T02:43:06;6.25;;;0.88;;
50461;SDS011;45257;37.996;-122.328;2022-07-01T02:45:34;16.23;;;2.17;;
50461;SDS011;45257;37.996;-122.328;2022-07-01T02:48:01;7.15;;;1.17;;
50461;SDS011;45257;37.996;-122.328;2022-07-01T02:50:28;3.47;;;0.88;;
50461;SDS011;45257;37.996;-122.328;2022-07-01T02:52:56;5.80;;;0.93;;
50461;SDS011;45257;37.996;-122.328;2022-07-01T02:55:23;9.95;;;0.63;;
50461;SDS011;45257;37.996;-122.328;2022-07-01T02:57:50;4.18;;;0.70;;
50461;SDS011;45257;37.996;-122.328;2022-07-01T03:00:18;12.00;;;1.35;;
50461;SDS011;45257;37.996;-122.328;2022-07-01T03:02:47;7.80;;;0.90;;
50461;SDS011;45257;37.996;-122.328;2022-07-01T03:05:15;6.32;;;0.70;;
50461;SDS011;45257;37.996;-122.328;2022-07-01T03:07:42;5.80;;;0.50;;
50461;SDS011;45257;37.996;-122.328;2022-07-01T03:10:10;8.23;;;1.33;;
50461;SDS011;45257;37.996;-122.328;2022-07-01T03:12:37;9.48;;;0.50;;
50461;SDS011;45257;37.996;-122.328;2022-07-01T03:15:13;6.00;;;0.60;;
50461;SDS011;45257;37.996;-122.328;2022-07-01T03:17:42;4.25;;;0.57;;
50461;SDS011;45257;37.996;-122.328;2022-07-01T03:22:43;4.65;;;0.55;;
50461;SDS011;45257;37.996;-122.328;2022-07-01T03:25:11;2.00;;;0.30;;
50461;SDS011;45257;37.996;-122.328;2022-07-01T03:27:39;3.80;;;0.40;;
50461;SDS011;45257;37.996;-122.328;2022-07-01T03:30:10;1.85;;;0.50;;
50461;SDS011;45257;37.996;-122.328;2022-07-01T03:32:39;2.67;;;0.30;;
50461;SDS011;45257;37.996;-122.328;2022-07-01T03:35:06;0.55;;;0.40;;
50461;SDS011;45257;37.996;-122.328;2022-07-01T03:37:52;0.47;;;0.30;;
50461;SDS011;45257;37.996;-122.328;2022-07-01T03:40:21;2.85;;;0.47;;
50461;SDS011;45257;37.996;-122.328;2022-07-01T03:42:49;2.45;;;0.70;;
50461;SDS011;45257;37.996;-122.328;2022-07-01T03:45:16;3.58;;;0.38;;
50461;SDS011;45257;37.996;-122.328;2022-07-01T03:47:49;0.77;;;0.30;;
50461;SDS011;45257;37.996;-122.328;2022-07-01T03:50:17;2.90;;;0.40;;
50461;SDS011;45257;37.996;-122.328;2022-07-01T03:52:47;0.55;;;0.30;;
50461;SDS011;45257;37.996;-122.328;2022-07-01T03:55:34;0.40;;;0.30;;
50461;SDS011;45257;37.996;-122.328;2022-07-01T03:58:01;1.48;;;0.40;;
50461;SDS011;45257;37.996;-122.328;2022-07-01T04:00:30;1.85;;;0.38;;
50461;SDS011;45257;37.996;-122.328;2022-07-01T04:03:02;0.20;;;0.20;;
50461;SDS011;45257;37.996;-122.328;2022-07-01T04:05:35;0.90;;;0.40;;
50461;SDS011;45257;37.996;-122.328;2022-07-01T04:08:03;1.63;;;0.30;;
50461;SDS011;45257;37.996;-122.328;2022-07-01T04:10:36;0.20;;;0.20;;
50461;SDS011;45257;37.996;-122.328;2022-07-01T04:13:06;0.55;;;0.43;;
50461;SDS011;45257;37.996;-122.328;2022-07-01T04:15:33;1.45;;;0.35;;
50461;SDS011;45257;37.996;-122.328;2022-07-01T04:18:01;1.83;;;0.70;;
50461;SDS011;45257;37.996;-122.328;2022-07-01T04:20:28;0.85;;;0.40;;
50461;SDS011;45257;37.996;-122.328;2022-07-01T04:22:55;1.88;;;0.38;;
50461;SDS011;45257;37.996;-122.328;2022-07-01T04:25:22;0.70;;;0.20;;
50461;SDS011;45257;37.996;-122.328;2022-07-01T04:27:49;0.40;;;0.28;;
50461;SDS011;45257;37.996;-122.328;2022-07-01T04:30:16;1.90;;;0.43;;
50461;SDS011;45257;37.996;-122.328;2022-07-01T04:32:43;1.73;;;0.20;;
50461;SDS011;45257;37.996;-122.328;2022-07-01T04:35:10;3.13;;;0.30;;
50461;SDS011;45257;37.996;-122.328;2022-07-01T04:37:40;2.83;;;0.20;;
50461;SDS011;45257;37.996;-122.328;2022-07-01T04:40:07;4.13;;;0.50;;
50461;SDS011;45257;37.996;-122.328;2022-07-01T04:42:34;4.15;;;0.30;;
50461;SDS011;45257;37.996;-122.328;2022-07-01T04:45:01;1.00;;;0.30;;
50461;SDS011;45257;37.996;-122.328;2022-07-01T04:47:28;0.60;;;0.20;;
50461;SDS011;45257;37.996;-122.328;2022-07-01T04:49:57;1.63;;;0.28;;
50461;SDS011;45257;37.996;-122.328;2022-07-01T04:52:26;0.95;;;0.45;;
50461;SDS011;45257;37.996;-122.328;2022-07-01T04:54:55;8.35;;;0.40;;
50461;SDS011;45257;37.996;-122.328;2022-07-01T04:57:22;10.15;;;0.60;;
50461;SDS011;45257;37.996;-122.328;2022-07-01T04:59:50;5.47;;;0.20;;
50461;SDS011;45257;37.996;-122.328;2022-07-01T05:02:17;0.55;;;0.30;;
50461;SDS011;45257;37.996;-122.328;2022-07-01T05:04:44;4.20;;;0.30;;
50461;SDS011;45257;37.996;-122.328;2022-07-01T05:07:11;2.38;;;0.40;;
50461;SDS011;45257;37.996;-122.328;2022-07-01T05:09:53;0.65;;;0.30;;
50461;SDS011;45257;37.996;-122.328;2022-07-01T05:12:22;7.80;;;0.45;;
50461;SDS011;45257;37.996;-122.328;2022-07-01T05:14:50;1.35;;;0.32;;
50461;SDS011;45257;37.996;-122.328;2022-07-01T05:17:17;2.17;;;0.50;;
50461;SDS011;45257;37.996;-122.328;2022-07-01T05:19:44;2.53;;;0.30;;
50461;SDS011;45257;37.996;-122.328;2022-07-01T05:22:29;1.63;;;0.20;;
50461;SDS011;45257;37.996;-122.328;2022-07-01T05:24:57;0.28;;;0.20;;
50461;SDS011;45257;37.996;-122.328;2022-07-01T05:27:24;2.47;;;0.40;;
50461;SDS011;45257;37.996;-122.328;2022-07-01T05:29:51;2.33;;;0.30;;
50461;SDS011;45257;37.996;-122.328;2022-07-01T05:32:18;1.23;;;0.25;;
50461;SDS011;45257;37.996;-122.328;2022-07-01T05:34:45;2.80;;;0.38;;
50461;SDS011;45257;37.996;-122.328;2022-07-01T05:37:13;1.20;;;0.30;;
50461;SDS011;45257;37.996;-122.328;2022-07-01T05:39:42;1.20;;;0.25;;
50461;SDS011;45257;37.996;-122.328;2022-07-01T05:42:09;0.57;;;0.20;;
50461;SDS011;45257;37.996;-122.328;2022-07-01T05:44:36;1.33;;;0.30;;
50461;SDS011;45257;37.996;-122.328;2022-07-01T05:47:03;1.05;;;0.30;;
50461;SDS011;45257;37.996;-122.328;2022-07-01T05:49:30;0.32;;;0.30;;
50461;SDS011;45257;37.996;-122.328;2022-07-01T05:51:57;1.00;;;0.20;;
50461;SDS011;45257;37.996;-122.328;2022-07-01T05:54:24;1.13;;;0.28;;
50461;SDS011;45257;37.996;-122.328;2022-07-01T05:56:51;0.20;;;0.20;;
50461;SDS011;45257;37.996;-122.328;2022-07-01T05:59:18;0.25;;;0.20;;
50461;SDS011;45257;37.996;-122.328;2022-07-01T06:01:45;0.60;;;0.20;;
50461;SDS011;45257;37.996;-122.328;2022-07-01T06:04:14;4.32;;;0.90;;
50461;SDS011;45257;37.996;-122.328;2022-07-01T06:06:41;7.70;;;0.65;;
50461;SDS011;45257;37.996;-122.328;2022-07-01T06:09:08;9.32;;;0.73;;
50461;SDS011;45257;37.996;-122.328;2022-07-01T06:11:35;4.53;;;0.40;;
50461;SDS011;45257;37.996;-122.328;2022-07-01T06:14:02;2.25;;;0.45;;
50461;SDS011;45257;37.996;-122.328;2022-07-01T06:16:29;4.80;;;0.32;;
50461;SDS011;45257;37.996;-122.328;2022-07-01T06:18:56;2.25;;;0.30;;
50461;SDS011;45257;37.996;-122.328;2022-07-01T06:21:23;1.83;;;0.30;;
50461;SDS011;45257;37.996;-122.328;2022-07-01T06:23:50;2.55;;;0.40;;
50461;SDS011;45257;37.996;-122.328;2022-07-01T06:26:17;2.83;;;0.32;;
50461;SDS011;45257;37.996;-122.328;2022-07-01T06:28:44;1.60;;;0.47;;
50461;SDS011;45257;37.996;-122.328;2022-07-01T06:31:11;1.67;;;0.28;;
50461;SDS011;45257;37.996;-122.328;2022-07-01T06:33:38;4.18;;;0.60;;
50461;SDS011;45257;37.996;-122.328;2022-07-01T06:36:05;0.60;;;0.20;;
50461;SDS011;45257;37.996;-122.328;2022-07-01T06:38:32;2.60;;;0.28;;
50461;SDS011;45257;37.996;-122.328;2022-07-01T06:40:59;0.28;;;0.20;;
50461;SDS011;45257;37.996;-122.328;2022-07-01T06:43:45;4.50;;;0.30;;
50461;SDS011;45257;37.996;-122.328;2022-07-01T06:46:12;0.65;;;0.30;;
50461;SDS011;45257;37.996;-122.328;2022-07-01T06:48:39;1.58;;;0.32;;
50461;SDS011;45257;37.996;-122.328;2022-07-01T06:51:06;0.45;;;0.28;;
50461;SDS011;45257;37.996;-122.328;2022-07-01T06:53:33;0.60;;;0.28;;
50461;SDS011;45257;37.996;-122.328;2022-07-01T06:56:01;5.20;;;0.30;;
50461;SDS011;45257;37.996;-122.328;2022-07-01T06:58:29;2.58;;;0.30;;
50461;SDS011;45257;37.996;-122.328;2022-07-01T07:00:56;0.70;;;0.20;;
50461;SDS011;45257;37.996;-122.328;2022-07-01T07:03:23;0.10;;;0.10;;
50461;SDS011;45257;37.996;-122.328;2022-07-01T07:05:50;0.55;;;0.10;;
50461;SDS011;45257;37.996;-122.328;2022-07-01T07:08:19;1.30;;;0.47;;
50461;SDS011;45257;37.996;-122.328;2022-07-01T07:10:54;0.60;;;0.20;;
50461;SDS011;45257;37.996;-122.328;2022-07-01T07:13:22;0.10;;;0.10;;
50461;SDS011;45257;37.996;-122.328;2022-07-01T07:15:49;0.20;;;0.20;;
50461;SDS011;45257;37.996;-122.328;2022-07-01T07:18:16;1.35;;;0.10;;
50461;SDS011;45257;37.996;-122.328;2022-07-01T07:20:44;0.10;;;0.10;;
50461;SDS011;45257;37.996;-122.328;2022-07-01T07:23:15;0.25;;;0.22;;
50461;SDS011;45257;37.996;-122.328;2022-07-01T07:25:42;0.10;;;0.10;;
50461;SDS011;45257;37.996;-122.328;2022-07-01T07:28:09;0.30;;;0.20;;
50461;SDS011;45257;37.996;-122.328;2022-07-01T07:30:36;0.65;;;0.20;;
50461;SDS011;45257;37.996;-122.328;2022-07-01T07:33:03;0.25;;;0.25;;
50461;SDS011;45257;37.996;-122.328;2022-07-01T07:35:31;1.30;;;0.20;;
50461;SDS011;45257;37.996;-122.328;2022-07-01T07:37:58;0.32;;;0.20;;
50461;SDS011;45257;37.996;-122.328;2022-07-01T07:40:25;0.55;;;0.20;;
50461;SDS011;45257;37.996;-122.328;2022-07-01T07:42:52;0.32;;;0.17;;
50461;SDS011;45257;37.996;-122.328;2022-07-01T07:45:19;0.17;;;0.17;;
50461;SDS011;45257;37.996;-122.328;2022-07-01T07:47:47;0.20;;;0.20;;
50461;SDS011;45257;37.996;-122.328;2022-07-01T07:50:15;0.40;;;0.20;;
50461;SDS011;45257;37.996;-122.328;2022-07-01T07:52:42;1.08;;;0.40;;
50461;SDS011;45257;37.996;-122.328;2022-07-01T07:55:09;0.10;;;0.10;;
50461;SDS011;45257;37.996;-122.328;2022-07-01T07:57:37;0.15;;;0.15;;
50461;SDS011;45257;37.996;-122.328;2022-07-01T08:00:06;0.30;;;0.30;;
50461;SDS011;45257;37.996;-122.328;2022-07-01T08:02:37;0.13;;;0.13;;
50461;SDS011;45257;37.996;-122.328;2022-07-01T08:05:09;0.30;;;0.20;;
50461;SDS011;45257;37.996;-122.328;2022-07-01T08:07:37;0.30;;;0.20;;
50461;SDS011;45257;37.996;-122.328;2022-07-01T08:10:07;0.13;;;0.10;;
50461;SDS011;45257;37.996;-122.328;2022-07-01T08:12:37;0.10;;;0.10;;
50461;SDS011;45257;37.996;-122.328;2022-07-01T08:15:04;0.20;;;0.20;;
50461;SDS011;45257;37.996;-122.328;2022-07-01T08:17:34;0.20;;;0.10;;
50461;SDS011;45257;37.996;-122.328;2022-07-01T08:20:01;0.68;;;0.25;;
50461;SDS011;45257;37.996;-122.328;2022-07-01T08:22:29;0.20;;;0.20;;
50461;SDS011;45257;37.996;-122.328;2022-07-01T08:24:56;0.40;;;0.20;;
50461;SDS011;45257;37.996;-122.328;2022-07-01T08:27:23;0.30;;;0.30;;
50461;SDS011;45257;37.996;-122.328;2022-07-01T08:29:51;0.10;;;0.10;;
50461;SDS011;45257;37.996;-122.328;2022-07-01T08:32:17;0.15;;;0.10;;
50461;SDS011;45257;37.996;-122.328;2022-07-01T08:34:44;0.47;;;0.28;;
50461;SDS011;45257;37.996;-122.328;2022-07-01T08:37:11;0.40;;;0.20;;
50461;SDS011;45257;37.996;-122.328;2022-07-01T08:39:38;0.30;;;0.30;;
50461;SDS011;45257;37.996;-122.328;2022-07-01T08:42:05;0.10;;;0.10;;
50461;SDS011;45257;37.996;-122.328;2022-07-01T08:44:33;0.28;;;0.13;;
50461;SDS011;45257;37.996;-122.328;2022-07-01T08:47:01;0.13;;;0.13;;
50461;SDS011;45257;37.996;-122.328;2022-07-01T08:49:29;0.20;;;0.10;;
50461;SDS011;45257;37.996;-122.328;2022-07-01T08:51:57;0.10;;;0.10;;
50461;SDS011;45257;37.996;-122.328;2022-07-01T08:54:24;0.10;;;0.10;;
50461;SDS011;45257;37.996;-122.328;2022-07-01T08:56:51;0.10;;;0.10;;
50461;SDS011;45257;37.996;-122.328;2022-07-01T08:59:22;0.22;;;0.22;;
50461;SDS011;45257;37.996;-122.328;2022-07-01T09:01:56;0.38;;;0.20;;
50461;SDS011;45257;37.996;-122.328;2022-07-01T09:04:26;0.57;;;0.17;;
50461;SDS011;45257;37.996;-122.328;2022-07-01T09:07:05;0.20;;;0.20;;
50461;SDS011;45257;37.996;-122.328;2022-07-01T09:09:38;0.10;;;0.10;;
50461;SDS011;45257;37.996;-122.328;2022-07-01T09:12:07;0.20;;;0.20;;
50461;SDS011;45257;37.996;-122.328;2022-07-01T09:14:35;1.70;;;0.10;;
50461;SDS011;45257;37.996;-122.328;2022-07-01T09:17:05;0.20;;;0.20;;
50461;SDS011;45257;37.996;-122.328;2022-07-01T09:19:34;0.10;;;0.10;;
50461;SDS011;45257;37.996;-122.328;2022-07-01T09:24:41;0.20;;;0.20;;
50461;SDS011;45257;37.996;-122.328;2022-07-01T09:27:13;0.20;;;0.20;;
50461;SDS011;45257;37.996;-122.328;2022-07-01T09:32:19;0.13;;;0.13;;
50461;SDS011;45257;37.996;-122.328;2022-07-01T09:34:48;0.13;;;0.13;;
50461;SDS011;45257;37.996;-122.328;2022-07-01T09:37:18;0.20;;;0.20;;
50461;SDS011;45257;37.996;-122.328;2022-07-01T09:39:47;0.55;;;0.13;;
50461;SDS011;45257;37.996;-122.328;2022-07-01T09:42:20;0.10;;;0.10;;
50461;SDS011;45257;37.996;-122.328;2022-07-01T09:44:54;0.20;;;0.20;;
50461;SDS011;45257;37.996;-122.328;2022-07-01T09:47:29;0.25;;;0.20;;
50461;SDS011;45257;37.996;-122.328;2022-07-01T09:49:58;0.10;;;0.10;;
50461;SDS011;45257;37.996;-122.328;2022-07-01T09:52:26;0.20;;;0.20;;
50461;SDS011;45257;37.996;-122.328;2022-07-01T09:54:53;0.10;;;0.10;;
50461;SDS011;45257;37.996;-122.328;2022-07-01T09:57:21;0.20;;;0.20;;
50461;SDS011;45257;37.996;-122.328;2022-07-01T09:59:48;0.13;;;0.13;;
50461;SDS011;45257;37.996;-122.328;2022-07-01T10:02:20;0.17;;;0.17;;
50461;SDS011;45257;37.996;-122.328;2022-07-01T10:04:49;0.20;;;0.20;;
50461;SDS011;45257;37.996;-122.328;2022-07-01T10:13:18;0.20;;;0.20;;
50461;SDS011;45257;37.996;-122.328;2022-07-01T10:15:52;0.10;;;0.10;;
50461;SDS011;45257;37.996;-122.328;2022-07-01T10:18:23;0.35;;;0.20;;
50461;SDS011;45257;37.996;-122.328;2022-07-01T10:20:52;0.35;;;0.20;;
50461;SDS011;45257;37.996;-122.328;2022-07-01T10:23:23;0.20;;;0.20;;
50461;SDS011;45257;37.996;-122.328;2022-07-01T10:26:02;0.20;;;0.20;;
50461;SDS011;45257;37.996;-122.328;2022-07-01T10:28:40;0.10;;;0.10;;
50461;SDS011;45257;37.996;-122.328;2022-07-01T10:31:15;0.40;;;0.20;;
50461;SDS011;45257;37.996;-122.328;2022-07-01T10:41:28;0.13;;;0.13;;
50461;SDS011;45257;37.996;-122.328;2022-07-01T10:44:05;0.22;;;0.20;;
50461;SDS011;45257;37.996;-122.328;2022-07-01T10:52:07;0.20;;;0.20;;
50461;SDS011;45257;37.996;-122.328;2022-07-01T10:59:44;0.10;;;0.10;;
50461;SDS011;45257;37.996;-122.328;2022-07-01T11:02:18;0.20;;;0.20;;
50461;SDS011;45257;37.996;-122.328;2022-07-01T11:04:47;0.20;;;0.20;;
50461;SDS011;45257;37.996;-122.328;2022-07-01T11:07:16;0.17;;;0.17;;
50461;SDS011;45257;37.996;-122.328;2022-07-01T11:09:43;0.10;;;0.10;;
50461;SDS011;45257;37.996;-122.328;2022-07-01T11:12:10;0.10;;;0.10;;
50461;SDS011;45257;37.996;-122.328;2022-07-01T11:14:40;0.30;;;0.20;;
50461;SDS011;45257;37.996;-122.328;2022-07-01T11:17:08;0.30;;;0.10;;
50461;SDS011;45257;37.996;-122.328;2022-07-01T11:19:36;0.43;;;0.20;;
50461;SDS011;45257;37.996;-122.328;2022-07-01T11:22:03;0.10;;;0.10;;
50461;SDS011;45257;37.996;-122.328;2022-07-01T11:24:31;0.10;;;0.10;;
50461;SDS011;45257;37.996;-122.328;2022-07-01T11:27:16;0.20;;;0.20;;
50461;SDS011;45257;37.996;-122.328;2022-07-01T11:29:43;0.10;;;0.10;;
50461;SDS011;45257;37.996;-122.328;2022-07-01T11:32:10;0.10;;;0.10;;
50461;SDS011;45257;37.996;-122.328;2022-07-01T11:34:37;0.20;;;0.20;;
50461;SDS011;45257;37.996;-122.328;2022-07-01T11:37:13;0.80;;;0.25;;
50461;SDS011;45257;37.996;-122.328;2022-07-01T11:40:05;0.20;;;0.20;;
50461;SDS011;45257;37.996;-122.328;2022-07-01T11:42:33;0.10;;;0.10;;
50461;SDS011;45257;37.996;-122.328;2022-07-01T11:45:01;0.17;;;0.17;;
50461;SDS011;45257;37.996;-122.328;2022-07-01T11:47:29;0.25;;;0.20;;
50461;SDS011;45257;37.996;-122.328;2022-07-01T11:49:57;0.15;;;0.10;;
50461;SDS011;45257;37.996;-122.328;2022-07-01T11:52:25;0.20;;;0.20;;
50461;SDS011;45257;37.996;-122.328;2022-07-01T11:54:55;0.20;;;0.20;;
50461;SDS011;45257;37.996;-122.328;2022-07-01T11:57:26;0.10;;;0.10;;
50461;SDS011;45257;37.996;-122.328;2022-07-01T11:59:56;0.20;;;0.10;;
50461;SDS011;45257;37.996;-122.328;2022-07-01T12:02:33;0.15;;;0.10;;
50461;SDS011;45257;37.996;-122.328;2022-07-01T12:04:59;0.32;;;0.20;;
50461;SDS011;45257;37.996;-122.328;2022-07-01T12:07:27;0.20;;;0.20;;
50461;SDS011;45257;37.996;-122.328;2022-07-01T12:09:56;0.32;;;0.20;;
50461;SDS011;45257;37.996;-122.328;2022-07-01T12:12:26;0.15;;;0.15;;
50461;SDS011;45257;37.996;-122.328;2022-07-01T12:17:22;0.10;;;0.10;;
50461;SDS011;45257;37.996;-122.328;2022-07-01T12:19:51;0.20;;;0.20;;
50461;SDS011;45257;37.996;-122.328;2022-07-01T12:22:23;0.20;;;0.20;;
50461;SDS011;45257;37.996;-122.328;2022-07-01T12:25:06;0.35;;;0.20;;
50461;SDS011;45257;37.996;-122.328;2022-07-01T12:27:36;0.20;;;0.20;;
50461;SDS011;45257;37.996;-122.328;2022-07-01T12:30:06;0.10;;;0.10;;
50461;SDS011;45257;37.996;-122.328;2022-07-01T12:32:36;0.20;;;0.20;;
50461;SDS011;45257;37.996;-122.328;2022-07-01T12:35:06;0.95;;;0.20;;
50461;SDS011;45257;37.996;-122.328;2022-07-01T12:37:54;0.17;;;0.17;;
50461;SDS011;45257;37.996;-122.328;2022-07-01T12:40:23;0.20;;;0.20;;
50461;SDS011;45257;37.996;-122.328;2022-07-01T12:42:55;0.10;;;0.10;;
50461;SDS011;45257;37.996;-122.328;2022-07-01T12:45:31;0.20;;;0.10;;
50461;SDS011;45257;37.996;-122.328;2022-07-01T12:48:05;1.30;;;0.20;;
50461;SDS011;45257;37.996;-122.328;2022-07-01T12:50:32;0.13;;;0.13;;
50461;SDS011;45257;37.996;-122.328;2022-07-01T12:53:05;0.10;;;0.10;;
50461;SDS011;45257;37.996;-122.328;2022-07-01T12:55:44;0.20;;;0.10;;
50461;SDS011;45257;37.996;-122.328;2022-07-01T12:58:16;0.20;;;0.20;;
50461;SDS011;45257;37.996;-122.328;2022-07-01T13:00:57;0.20;;;0.20;;
50461;SDS011;45257;37.996;-122.328;2022-07-01T13:03:26;0.75;;;0.20;;
50461;SDS011;45257;37.996;-122.328;2022-07-01T13:05:54;0.10;;;0.10;;
50461;SDS011;45257;37.996;-122.328;2022-07-01T13:08:23;0.10;;;0.10;;
50461;SDS011;45257;37.996;-122.328;2022-07-01T13:10:50;0.10;;;0.10;;
50461;SDS011;45257;37.996;-122.328;2022-07-01T13:13:17;0.20;;;0.10;;
50461;SDS011;45257;37.996;-122.328;2022-07-01T13:15:46;0.10;;;0.10;;
50461;SDS011;45257;37.996;-122.328;2022-07-01T13:18:13;0.22;;;0.20;;
50461;SDS011;45257;37.996;-122.328;2022-07-01T13:20:41;0.20;;;0.20;;
50461;SDS011;45257;37.996;-122.328;2022-07-01T13:23:10;0.13;;;0.13;;
50461;SDS011;45257;37.996;-122.328;2022-07-01T13:25:37;0.28;;;0.20;;
50461;SDS011;45257;37.996;-122.328;2022-07-01T13:28:05;0.10;;;0.10;;
50461;SDS011;45257;37.996;-122.328;2022-07-01T13:30:33;0.10;;;0.10;;
50461;SDS011;45257;37.996;-122.328;2022-07-01T13:33:03;0.17;;;0.17;;
50461;SDS011;45257;37.996;-122.328;2022-07-01T13:35:30;0.15;;;0.15;;
50461;SDS011;45257;37.996;-122.328;2022-07-01T13:37:57;0.10;;;0.10;;
50461;SDS011;45257;37.996;-122.328;2022-07-01T13:40:24;0.20;;;0.20;;
50461;SDS011;45257;37.996;-122.328;2022-07-01T13:42:51;0.20;;;0.20;;
50461;SDS011;45257;37.996;-122.328;2022-07-01T13:45:18;0.20;;;0.20;;
50461;SDS011;45257;37.996;-122.328;2022-07-01T13:47:45;0.43;;;0.15;;
50461;SDS011;45257;37.996;-122.328;2022-07-01T13:50:13;0.25;;;0.25;;
50461;SDS011;45257;37.996;-122.328;2022-07-01T13:52:44;0.20;;;0.20;;
50461;SDS011;45257;37.996;-122.328;2022-07-01T13:55:15;0.20;;;0.20;;
50461;SDS011;45257;37.996;-122.328;2022-07-01T13:57:42;0.17;;;0.17;;
50461;SDS011;45257;37.996;-122.328;2022-07-01T14:00:11;0.30;;;0.30;;
50461;SDS011;45257;37.996;-122.328;2022-07-01T14:02:39;0.17;;;0.17;;
50461;SDS011;45257;37.996;-122.328;2022-07-01T14:05:07;0.10;;;0.10;;
50461;SDS011;45257;37.996;-122.328;2022-07-01T14:07:35;0.20;;;0.20;;
50461;SDS011;45257;37.996;-122.328;2022-07-01T14:10:03;0.20;;;0.20;;
50461;SDS011;45257;37.996;-122.328;2022-07-01T14:12:30;0.10;;;0.10;;
50461;SDS011;45257;37.996;-122.328;2022-07-01T14:14:58;0.80;;;0.20;;
50461;SDS011;45257;37.996;-122.328;2022-07-01T14:17:25;0.60;;;0.17;;
50461;SDS011;45257;37.996;-122.328;2022-07-01T14:19:53;0.10;;;0.10;;
50461;SDS011;45257;37.996;-122.328;2022-07-01T14:22:22;0.10;;;0.10;;
50461;SDS011;45257;37.996;-122.328;2022-07-01T14:24:51;1.10;;;0.20;;
50461;SDS011;45257;37.996;-122.328;2022-07-01T14:27:18;0.20;;;0.20;;
50461;SDS011;45257;37.996;-122.328;2022-07-01T14:29:45;0.20;;;0.10;;
50461;SDS011;45257;37.996;-122.328;2022-07-01T14:32:12;0.10;;;0.10;;
50461;SDS011;45257;37.996;-122.328;2022-07-01T14:34:39;0.10;;;0.10;;
50461;SDS011;45257;37.996;-122.328;2022-07-01T14:37:06;2.30;;;0.28;;
50461;SDS011;45257;37.996;-122.328;2022-07-01T14:39:34;0.10;;;0.10;;
50461;SDS011;45257;37.996;-122.328;2022-07-01T14:42:01;0.20;;;0.20;;
50461;SDS011;45257;37.996;-122.328;2022-07-01T14:44:28;0.10;;;0.10;;
50461;SDS011;45257;37.996;-122.328;2022-07-01T14:46:55;2.30;;;0.40;;
50461;SDS011;45257;37.996;-122.328;2022-07-01T14:49:22;1.77;;;0.73;;
50461;SDS011;45257;37.996;-122.328;2022-07-01T14:51:49;2.33;;;0.82;;
50461;SDS011;45257;37.996;-122.328;2022-07-01T14:54:17;2.65;;;1.00;;